Decoded Metar for CYBK (BAKER LAKE in NU, CANADA) (IATA:YBK) | Meteo·Mobile Aviation Weather
aviador You're here:

CYBK Decoded Metar

BAKER LAKE in NU, CANADA
Report Time2018-09-20 03:35:00
UTC Time2018-09-20 03:44:43
Flight Rules vfr VFR
Wind240° at 07 kt
W.Decomp.*RWY 16: 0.9 kt HW 6.9 kt RCW
W.Rank240° ranks 29
Current wind is below 240° avg. (7.3)
Visibility9999 m
Phenomena:Light Snow
Clouds:Few 062 Hf
Broken 063 Hf
Expected CloudBase > 800 ft AGL from Temp-Dew spread
Ceiling6,300 ft
Temp-4°C (ISA -19)
Dew Point-6°C (86% RH)
AAT-9.2°C
QNH1008 hPa
Density Alt-2,044 ft
Elevation59 ft
Report Wrong Elevation
Raw Report
SPECI CYBK 200335Z 24007KT 15SM -SN FEW062 BKN063 M04/M06 A2976 RMK SC2SC4 SLP081=

Extra information for CYBK:More info

Metar Taf Metar & Taf Last 4 Metars F.Rules Stats Wind Profile Meteogram Temp Stats Airport Information Weather charts Add Link Nearby VenuesMetar ALERT Operation Metar Decoded Social comments